sensor_id;sensor_type;location;lat;lon;timestamp;P1;durP1;ratioP1;P2;durP2;ratioP2
12425;SDS011;6277;49.824;9.562;2023-01-24T00:00:50;5.65;;;3.97;;
12425;SDS011;6277;49.824;9.562;2023-01-24T00:03:16;6.72;;;4.50;;
12425;SDS011;6277;49.824;9.562;2023-01-24T00:05:42;5.88;;;4.25;;
12425;SDS011;6277;49.824;9.562;2023-01-24T00:08:13;6.00;;;4.30;;
12425;SDS011;6277;49.824;9.562;2023-01-24T00:10:40;5.72;;;3.92;;
12425;SDS011;6277;49.824;9.562;2023-01-24T00:13:06;6.57;;;4.30;;
12425;SDS011;6277;49.824;9.562;2023-01-24T00:15:34;6.80;;;4.20;;
12425;SDS011;6277;49.824;9.562;2023-01-24T00:18:00;6.72;;;4.25;;
12425;SDS011;6277;49.824;9.562;2023-01-24T00:20:25;6.78;;;4.85;;
12425;SDS011;6277;49.824;9.562;2023-01-24T00:22:51;6.80;;;4.50;;
12425;SDS011;6277;49.824;9.562;2023-01-24T00:25:16;7.25;;;4.30;;
12425;SDS011;6277;49.824;9.562;2023-01-24T00:27:42;6.22;;;4.25;;
12425;SDS011;6277;49.824;9.562;2023-01-24T00:30:08;5.97;;;4.35;;
12425;SDS011;6277;49.824;9.562;2023-01-24T00:32:34;6.43;;;3.92;;
12425;SDS011;6277;49.824;9.562;2023-01-24T00:34:59;5.72;;;4.15;;
12425;SDS011;6277;49.824;9.562;2023-01-24T00:37:25;6.55;;;4.53;;
12425;SDS011;6277;49.824;9.562;2023-01-24T00:39:51;5.72;;;4.15;;
12425;SDS011;6277;49.824;9.562;2023-01-24T00:42:16;6.70;;;4.25;;
12425;SDS011;6277;49.824;9.562;2023-01-24T00:44:42;6.05;;;3.92;;
12425;SDS011;6277;49.824;9.562;2023-01-24T00:47:07;6.35;;;4.28;;
12425;SDS011;6277;49.824;9.562;2023-01-24T00:49:33;6.30;;;4.47;;
12425;SDS011;6277;49.824;9.562;2023-01-24T00:51:58;5.82;;;3.90;;
12425;SDS011;6277;49.824;9.562;2023-01-24T00:54:24;6.50;;;4.03;;
12425;SDS011;6277;49.824;9.562;2023-01-24T00:56:50;5.60;;;4.07;;
12425;SDS011;6277;49.824;9.562;2023-01-24T00:59:15;6.97;;;3.78;;
12425;SDS011;6277;49.824;9.562;2023-01-24T01:01:41;6.85;;;4.40;;
12425;SDS011;6277;49.824;9.562;2023-01-24T01:04:06;6.43;;;4.13;;
12425;SDS011;6277;49.824;9.562;2023-01-24T01:06:32;5.55;;;3.70;;
12425;SDS011;6277;49.824;9.562;2023-01-24T01:08:57;6.20;;;4.40;;
12425;SDS011;6277;49.824;9.562;2023-01-24T01:11:23;5.53;;;4.20;;
12425;SDS011;6277;49.824;9.562;2023-01-24T01:13:49;6.72;;;4.32;;
12425;SDS011;6277;49.824;9.562;2023-01-24T01:16:16;6.32;;;4.57;;
12425;SDS011;6277;49.824;9.562;2023-01-24T01:18:43;6.15;;;4.15;;
12425;SDS011;6277;49.824;9.562;2023-01-24T01:21:14;5.75;;;3.75;;
12425;SDS011;6277;49.824;9.562;2023-01-24T01:23:41;6.05;;;4.10;;
12425;SDS011;6277;49.824;9.562;2023-01-24T01:26:08;6.13;;;4.32;;
12425;SDS011;6277;49.824;9.562;2023-01-24T01:28:37;6.68;;;4.05;;
12425;SDS011;6277;49.824;9.562;2023-01-24T01:31:03;7.00;;;4.90;;
12425;SDS011;6277;49.824;9.562;2023-01-24T01:33:29;7.63;;;4.93;;
12425;SDS011;6277;49.824;9.562;2023-01-24T01:35:55;6.57;;;4.25;;
12425;SDS011;6277;49.824;9.562;2023-01-24T01:38:20;6.53;;;4.75;;
12425;SDS011;6277;49.824;9.562;2023-01-24T01:40:49;6.65;;;4.30;;
12425;SDS011;6277;49.824;9.562;2023-01-24T01:43:16;5.63;;;4.20;;
12425;SDS011;6277;49.824;9.562;2023-01-24T01:45:44;4.90;;;3.72;;
12425;SDS011;6277;49.824;9.562;2023-01-24T01:48:24;5.63;;;4.03;;
12425;SDS011;6277;49.824;9.562;2023-01-24T01:53:22;5.35;;;4.10;;
12425;SDS011;6277;49.824;9.562;2023-01-24T01:55:53;4.97;;;3.63;;
12425;SDS011;6277;49.824;9.562;2023-01-24T01:58:22;5.25;;;3.30;;
12425;SDS011;6277;49.824;9.562;2023-01-24T02:00:48;5.35;;;3.83;;
12425;SDS011;6277;49.824;9.562;2023-01-24T02:03:15;5.38;;;3.42;;
12425;SDS011;6277;49.824;9.562;2023-01-24T02:06:27;6.13;;;3.95;;
12425;SDS011;6277;49.824;9.562;2023-01-24T02:09:10;5.03;;;3.47;;
12425;SDS011;6277;49.824;9.562;2023-01-24T02:11:39;5.60;;;4.10;;
12425;SDS011;6277;49.824;9.562;2023-01-24T02:14:06;6.38;;;3.60;;
12425;SDS011;6277;49.824;9.562;2023-01-24T02:16:52;4.88;;;3.60;;
12425;SDS011;6277;49.824;9.562;2023-01-24T02:19:30;5.93;;;3.47;;
12425;SDS011;6277;49.824;9.562;2023-01-24T02:25:21;5.20;;;3.40;;
12425;SDS011;6277;49.824;9.562;2023-01-24T02:28:08;5.18;;;3.65;;
12425;SDS011;6277;49.824;9.562;2023-01-24T02:30:35;4.60;;;3.50;;
12425;SDS011;6277;49.824;9.562;2023-01-24T02:33:08;6.22;;;4.03;;
12425;SDS011;6277;49.824;9.562;2023-01-24T02:35:38;5.65;;;4.03;;
12425;SDS011;6277;49.824;9.562;2023-01-24T02:38:04;5.38;;;3.80;;
12425;SDS011;6277;49.824;9.562;2023-01-24T02:40:36;5.78;;;3.90;;
12425;SDS011;6277;49.824;9.562;2023-01-24T02:43:02;5.25;;;3.70;;
12425;SDS011;6277;49.824;9.562;2023-01-24T02:45:31;6.13;;;3.75;;
12425;SDS011;6277;49.824;9.562;2023-01-24T02:47:58;5.97;;;3.97;;
12425;SDS011;6277;49.824;9.562;2023-01-24T02:50:26;6.18;;;3.83;;
12425;SDS011;6277;49.824;9.562;2023-01-24T02:52:53;6.45;;;4.25;;
12425;SDS011;6277;49.824;9.562;2023-01-24T02:55:37;4.78;;;3.45;;
12425;SDS011;6277;49.824;9.562;2023-01-24T02:58:21;6.03;;;4.03;;
12425;SDS011;6277;49.824;9.562;2023-01-24T03:00:47;6.45;;;3.72;;
12425;SDS011;6277;49.824;9.562;2023-01-24T03:03:12;6.75;;;4.20;;
12425;SDS011;6277;49.824;9.562;2023-01-24T03:05:39;5.50;;;3.50;;
12425;SDS011;6277;49.824;9.562;2023-01-24T03:08:18;5.95;;;3.92;;
12425;SDS011;6277;49.824;9.562;2023-01-24T03:10:43;6.13;;;4.20;;
12425;SDS011;6277;49.824;9.562;2023-01-24T03:13:11;6.72;;;4.03;;
12425;SDS011;6277;49.824;9.562;2023-01-24T03:15:58;5.95;;;3.92;;
12425;SDS011;6277;49.824;9.562;2023-01-24T03:18:43;6.50;;;4.28;;
12425;SDS011;6277;49.824;9.562;2023-01-24T03:21:27;5.90;;;3.95;;
12425;SDS011;6277;49.824;9.562;2023-01-24T03:24:11;6.93;;;4.10;;
12425;SDS011;6277;49.824;9.562;2023-01-24T03:26:55;5.97;;;4.20;;
12425;SDS011;6277;49.824;9.562;2023-01-24T03:29:39;6.25;;;4.47;;
12425;SDS011;6277;49.824;9.562;2023-01-24T03:32:23;5.93;;;4.07;;
12425;SDS011;6277;49.824;9.562;2023-01-24T03:35:07;5.95;;;4.13;;
12425;SDS011;6277;49.824;9.562;2023-01-24T03:37:32;6.60;;;4.10;;
12425;SDS011;6277;49.824;9.562;2023-01-24T03:40:16;5.60;;;4.05;;
12425;SDS011;6277;49.824;9.562;2023-01-24T03:42:42;6.45;;;4.50;;
12425;SDS011;6277;49.824;9.562;2023-01-24T03:45:14;5.93;;;4.07;;
12425;SDS011;6277;49.824;9.562;2023-01-24T03:47:45;5.82;;;4.20;;
12425;SDS011;6277;49.824;9.562;2023-01-24T03:50:20;6.00;;;3.92;;
12425;SDS011;6277;49.824;9.562;2023-01-24T03:53:08;6.97;;;4.35;;
12425;SDS011;6277;49.824;9.562;2023-01-24T03:55:34;5.45;;;4.13;;
12425;SDS011;6277;49.824;9.562;2023-01-24T03:58:00;6.43;;;4.10;;
12425;SDS011;6277;49.824;9.562;2023-01-24T04:00:26;6.38;;;4.63;;
12425;SDS011;6277;49.824;9.562;2023-01-24T04:02:52;5.90;;;4.20;;
12425;SDS011;6277;49.824;9.562;2023-01-24T04:05:18;7.13;;;4.10;;
12425;SDS011;6277;49.824;9.562;2023-01-24T04:07:45;6.45;;;4.53;;
12425;SDS011;6277;49.824;9.562;2023-01-24T04:10:11;6.97;;;4.65;;
12425;SDS011;6277;49.824;9.562;2023-01-24T04:12:38;6.47;;;4.30;;
12425;SDS011;6277;49.824;9.562;2023-01-24T04:15:04;7.15;;;4.55;;
12425;SDS011;6277;49.824;9.562;2023-01-24T04:17:30;7.50;;;4.53;;
12425;SDS011;6277;49.824;9.562;2023-01-24T04:19:56;7.13;;;4.82;;
12425;SDS011;6277;49.824;9.562;2023-01-24T04:22:21;7.75;;;4.88;;
12425;SDS011;6277;49.824;9.562;2023-01-24T04:24:47;6.32;;;4.38;;
12425;SDS011;6277;49.824;9.562;2023-01-24T04:27:12;7.05;;;4.82;;
12425;SDS011;6277;49.824;9.562;2023-01-24T04:29:38;7.03;;;4.43;;
12425;SDS011;6277;49.824;9.562;2023-01-24T04:32:04;7.57;;;4.60;;
12425;SDS011;6277;49.824;9.562;2023-01-24T04:34:30;7.70;;;5.18;;
12425;SDS011;6277;49.824;9.562;2023-01-24T04:36:55;8.00;;;5.00;;
12425;SDS011;6277;49.824;9.562;2023-01-24T04:39:21;6.75;;;4.68;;
12425;SDS011;6277;49.824;9.562;2023-01-24T04:41:46;7.60;;;4.75;;
12425;SDS011;6277;49.824;9.562;2023-01-24T04:44:12;7.38;;;4.85;;
12425;SDS011;6277;49.824;9.562;2023-01-24T04:46:37;7.07;;;4.45;;
12425;SDS011;6277;49.824;9.562;2023-01-24T04:49:03;6.32;;;4.50;;
12425;SDS011;6277;49.824;9.562;2023-01-24T04:51:28;7.00;;;4.82;;
12425;SDS011;6277;49.824;9.562;2023-01-24T04:53:54;7.20;;;4.95;;
12425;SDS011;6277;49.824;9.562;2023-01-24T04:56:20;8.32;;;5.20;;
12425;SDS011;6277;49.824;9.562;2023-01-24T04:58:46;7.10;;;5.00;;
12425;SDS011;6277;49.824;9.562;2023-01-24T05:01:11;8.68;;;5.22;;
12425;SDS011;6277;49.824;9.562;2023-01-24T05:03:37;7.10;;;4.72;;
12425;SDS011;6277;49.824;9.562;2023-01-24T05:06:02;8.40;;;5.20;;
12425;SDS011;6277;49.824;9.562;2023-01-24T05:08:28;8.02;;;5.60;;
12425;SDS011;6277;49.824;9.562;2023-01-24T05:10:53;7.82;;;4.85;;
12425;SDS011;6277;49.824;9.562;2023-01-24T05:13:19;7.03;;;4.30;;
12425;SDS011;6277;49.824;9.562;2023-01-24T05:15:48;8.02;;;5.07;;
12425;SDS011;6277;49.824;9.562;2023-01-24T05:18:15;8.00;;;5.05;;
12425;SDS011;6277;49.824;9.562;2023-01-24T05:20:40;7.50;;;4.93;;
12425;SDS011;6277;49.824;9.562;2023-01-24T05:23:06;8.15;;;4.80;;
12425;SDS011;6277;49.824;9.562;2023-01-24T05:25:31;7.60;;;4.95;;
12425;SDS011;6277;49.824;9.562;2023-01-24T05:27:57;7.85;;;4.93;;
12425;SDS011;6277;49.824;9.562;2023-01-24T05:30:22;8.20;;;4.82;;
12425;SDS011;6277;49.824;9.562;2023-01-24T05:32:48;7.35;;;5.20;;
12425;SDS011;6277;49.824;9.562;2023-01-24T05:35:13;7.10;;;4.93;;
12425;SDS011;6277;49.824;9.562;2023-01-24T05:37:39;7.72;;;5.03;;
12425;SDS011;6277;49.824;9.562;2023-01-24T05:40:05;6.75;;;4.55;;
12425;SDS011;6277;49.824;9.562;2023-01-24T05:42:32;7.72;;;5.30;;
12425;SDS011;6277;49.824;9.562;2023-01-24T05:44:57;7.78;;;5.05;;
12425;SDS011;6277;49.824;9.562;2023-01-24T05:47:23;6.80;;;4.30;;
12425;SDS011;6277;49.824;9.562;2023-01-24T05:49:49;8.00;;;4.90;;
12425;SDS011;6277;49.824;9.562;2023-01-24T05:52:15;8.38;;;5.00;;
12425;SDS011;6277;49.824;9.562;2023-01-24T05:54:49;7.35;;;5.03;;
12425;SDS011;6277;49.824;9.562;2023-01-24T05:57:15;8.82;;;5.53;;
12425;SDS011;6277;49.824;9.562;2023-01-24T05:59:41;7.82;;;5.05;;
12425;SDS011;6277;49.824;9.562;2023-01-24T06:02:07;8.40;;;5.18;;
12425;SDS011;6277;49.824;9.562;2023-01-24T06:04:32;8.05;;;5.68;;
12425;SDS011;6277;49.824;9.562;2023-01-24T06:06:58;7.82;;;5.30;;
12425;SDS011;6277;49.824;9.562;2023-01-24T06:09:23;6.90;;;4.82;;
12425;SDS011;6277;49.824;9.562;2023-01-24T06:11:49;7.93;;;5.05;;
12425;SDS011;6277;49.824;9.562;2023-01-24T06:14:15;8.05;;;4.95;;
12425;SDS011;6277;49.824;9.562;2023-01-24T06:16:42;6.95;;;4.78;;
12425;SDS011;6277;49.824;9.562;2023-01-24T06:19:09;8.93;;;5.43;;
12425;SDS011;6277;49.824;9.562;2023-01-24T06:24:21;9.32;;;5.35;;
12425;SDS011;6277;49.824;9.562;2023-01-24T06:26:51;7.85;;;5.10;;
12425;SDS011;6277;49.824;9.562;2023-01-24T06:29:18;8.15;;;5.05;;
12425;SDS011;6277;49.824;9.562;2023-01-24T06:34:21;7.60;;;4.90;;
12425;SDS011;6277;49.824;9.562;2023-01-24T06:39:57;7.28;;;4.82;;
12425;SDS011;6277;49.824;9.562;2023-01-24T06:42:23;9.35;;;5.38;;
12425;SDS011;6277;49.824;9.562;2023-01-24T06:44:49;7.53;;;5.13;;
12425;SDS011;6277;49.824;9.562;2023-01-24T06:47:15;8.07;;;5.53;;
12425;SDS011;6277;49.824;9.562;2023-01-24T06:49:41;8.88;;;5.70;;
12425;SDS011;6277;49.824;9.562;2023-01-24T06:52:07;7.30;;;4.70;;
12425;SDS011;6277;49.824;9.562;2023-01-24T06:54:34;9.68;;;5.72;;
12425;SDS011;6277;49.824;9.562;2023-01-24T06:57:00;8.85;;;5.53;;
12425;SDS011;6277;49.824;9.562;2023-01-24T06:59:27;8.80;;;5.75;;
12425;SDS011;6277;49.824;9.562;2023-01-24T07:01:52;8.70;;;5.32;;
12425;SDS011;6277;49.824;9.562;2023-01-24T07:04:18;8.07;;;5.15;;
12425;SDS011;6277;49.824;9.562;2023-01-24T07:06:44;7.97;;;5.30;;
12425;SDS011;6277;49.824;9.562;2023-01-24T07:09:09;8.68;;;5.35;;
12425;SDS011;6277;49.824;9.562;2023-01-24T07:11:35;8.15;;;5.55;;
12425;SDS011;6277;49.824;9.562;2023-01-24T07:14:01;9.50;;;5.90;;
12425;SDS011;6277;49.824;9.562;2023-01-24T07:16:27;9.90;;;5.90;;
12425;SDS011;6277;49.824;9.562;2023-01-24T07:18:53;9.77;;;5.88;;
12425;SDS011;6277;49.824;9.562;2023-01-24T07:21:19;8.85;;;5.60;;
12425;SDS011;6277;49.824;9.562;2023-01-24T07:23:45;9.07;;;5.68;;
12425;SDS011;6277;49.824;9.562;2023-01-24T07:26:12;8.90;;;5.95;;
12425;SDS011;6277;49.824;9.562;2023-01-24T07:28:39;8.65;;;5.63;;
12425;SDS011;6277;49.824;9.562;2023-01-24T07:31:05;7.82;;;5.50;;
12425;SDS011;6277;49.824;9.562;2023-01-24T07:33:32;8.52;;;5.65;;
12425;SDS011;6277;49.824;9.562;2023-01-24T07:35:58;9.00;;;5.18;;
12425;SDS011;6277;49.824;9.562;2023-01-24T07:38:24;9.88;;;5.70;;
12425;SDS011;6277;49.824;9.562;2023-01-24T07:40:49;9.10;;;5.38;;
12425;SDS011;6277;49.824;9.562;2023-01-24T07:43:15;9.20;;;5.35;;
12425;SDS011;6277;49.824;9.562;2023-01-24T07:45:44;8.45;;;5.65;;
12425;SDS011;6277;49.824;9.562;2023-01-24T07:48:10;8.27;;;5.40;;
12425;SDS011;6277;49.824;9.562;2023-01-24T07:50:35;9.82;;;6.07;;
12425;SDS011;6277;49.824;9.562;2023-01-24T07:53:01;9.55;;;5.78;;
12425;SDS011;6277;49.824;9.562;2023-01-24T07:55:26;8.88;;;5.30;;
12425;SDS011;6277;49.824;9.562;2023-01-24T07:57:56;9.52;;;6.07;;
12425;SDS011;6277;49.824;9.562;2023-01-24T08:00:23;9.18;;;5.50;;
12425;SDS011;6277;49.824;9.562;2023-01-24T08:02:49;8.52;;;5.60;;
12425;SDS011;6277;49.824;9.562;2023-01-24T08:05:15;9.70;;;5.88;;
12425;SDS011;6277;49.824;9.562;2023-01-24T08:07:40;10.90;;;6.07;;
12425;SDS011;6277;49.824;9.562;2023-01-24T08:10:06;7.40;;;5.05;;
12425;SDS011;6277;49.824;9.562;2023-01-24T08:12:32;8.52;;;5.43;;
12425;SDS011;6277;49.824;9.562;2023-01-24T08:14:58;8.70;;;5.72;;
12425;SDS011;6277;49.824;9.562;2023-01-24T08:17:23;9.25;;;5.97;;
12425;SDS011;6277;49.824;9.562;2023-01-24T08:19:49;8.23;;;5.68;;
12425;SDS011;6277;49.824;9.562;2023-01-24T08:22:14;9.00;;;5.55;;
12425;SDS011;6277;49.824;9.562;2023-01-24T08:24:40;10.07;;;5.82;;
12425;SDS011;6277;49.824;9.562;2023-01-24T08:27:05;7.53;;;5.25;;
12425;SDS011;6277;49.824;9.562;2023-01-24T08:29:31;8.07;;;4.97;;
12425;SDS011;6277;49.824;9.562;2023-01-24T08:31:57;8.23;;;5.63;;
12425;SDS011;6277;49.824;9.562;2023-01-24T08:34:23;7.40;;;5.13;;
12425;SDS011;6277;49.824;9.562;2023-01-24T08:36:48;8.88;;;5.07;;
12425;SDS011;6277;49.824;9.562;2023-01-24T08:39:14;8.45;;;5.20;;
12425;SDS011;6277;49.824;9.562;2023-01-24T08:41:40;8.10;;;5.40;;
12425;SDS011;6277;49.824;9.562;2023-01-24T08:44:08;8.90;;;5.72;;
12425;SDS011;6277;49.824;9.562;2023-01-24T08:46:34;8.35;;;5.68;;
12425;SDS011;6277;49.824;9.562;2023-01-24T08:48:59;7.40;;;5.05;;
12425;SDS011;6277;49.824;9.562;2023-01-24T08:51:27;7.15;;;5.10;;
12425;SDS011;6277;49.824;9.562;2023-01-24T08:53:53;6.90;;;4.50;;
12425;SDS011;6277;49.824;9.562;2023-01-24T08:56:18;7.53;;;4.80;;
12425;SDS011;6277;49.824;9.562;2023-01-24T08:58:44;6.45;;;4.72;;
12425;SDS011;6277;49.824;9.562;2023-01-24T09:01:09;7.82;;;5.13;;
12425;SDS011;6277;49.824;9.562;2023-01-24T09:03:35;8.63;;;5.03;;
12425;SDS011;6277;49.824;9.562;2023-01-24T09:06:01;7.43;;;4.80;;
12425;SDS011;6277;49.824;9.562;2023-01-24T09:08:27;8.00;;;5.13;;
12425;SDS011;6277;49.824;9.562;2023-01-24T09:10:52;7.43;;;4.93;;
12425;SDS011;6277;49.824;9.562;2023-01-24T09:13:18;7.95;;;4.65;;
12425;SDS011;6277;49.824;9.562;2023-01-24T09:15:44;7.43;;;4.95;;
12425;SDS011;6277;49.824;9.562;2023-01-24T09:18:10;7.18;;;4.95;;
12425;SDS011;6277;49.824;9.562;2023-01-24T09:20:35;6.22;;;4.38;;
12425;SDS011;6277;49.824;9.562;2023-01-24T09:23:08;7.72;;;4.97;;
12425;SDS011;6277;49.824;9.562;2023-01-24T09:25:34;6.68;;;4.47;;
12425;SDS011;6277;49.824;9.562;2023-01-24T09:28:00;7.68;;;4.75;;
12425;SDS011;6277;49.824;9.562;2023-01-24T09:30:25;6.93;;;4.70;;
12425;SDS011;6277;49.824;9.562;2023-01-24T09:32:51;5.85;;;4.30;;
12425;SDS011;6277;49.824;9.562;2023-01-24T09:35:16;6.85;;;4.72;;
12425;SDS011;6277;49.824;9.562;2023-01-24T09:37:42;7.05;;;4.93;;
12425;SDS011;6277;49.824;9.562;2023-01-24T09:40:20;6.60;;;4.78;;
12425;SDS011;6277;49.824;9.562;2023-01-24T09:43:05;6.70;;;4.60;;
12425;SDS011;6277;49.824;9.562;2023-01-24T09:45:49;7.22;;;4.45;;
12425;SDS011;6277;49.824;9.562;2023-01-24T09:48:22;6.55;;;4.47;;
12425;SDS011;6277;49.824;9.562;2023-01-24T09:50:49;6.60;;;4.75;;
12425;SDS011;6277;49.824;9.562;2023-01-24T09:53:21;5.88;;;3.95;;
12425;SDS011;6277;49.824;9.562;2023-01-24T09:55:51;6.68;;;4.10;;
12425;SDS011;6277;49.824;9.562;2023-01-24T09:58:22;6.38;;;4.30;;
12425;SDS011;6277;49.824;9.562;2023-01-24T10:00:59;4.68;;;3.55;;
12425;SDS011;6277;49.824;9.562;2023-01-24T10:03:34;6.63;;;4.28;;
12425;SDS011;6277;49.824;9.562;2023-01-24T10:14:33;6.75;;;4.28;;
12425;SDS011;6277;49.824;9.562;2023-01-24T10:22:52;5.80;;;3.67;;
12425;SDS011;6277;49.824;9.562;2023-01-24T10:25:31;6.03;;;3.97;;
12425;SDS011;6277;49.824;9.562;2023-01-24T10:28:23;6.17;;;3.97;;
12425;SDS011;6277;49.824;9.562;2023-01-24T10:33:41;5.93;;;4.32;;
12425;SDS011;6277;49.824;9.562;2023-01-24T10:39:04;6.55;;;3.88;;
12425;SDS011;6277;49.824;9.562;2023-01-24T10:41:30;5.82;;;3.97;;
12425;SDS011;6277;49.824;9.562;2023-01-24T10:44:01;5.68;;;3.63;;
12425;SDS011;6277;49.824;9.562;2023-01-24T10:46:42;6.20;;;4.10;;
12425;SDS011;6277;49.824;9.562;2023-01-24T10:49:28;6.05;;;3.92;;
12425;SDS011;6277;49.824;9.562;2023-01-24T10:54:40;6.75;;;4.18;;
12425;SDS011;6277;49.824;9.562;2023-01-24T10:57:15;7.13;;;4.43;;
12425;SDS011;6277;49.824;9.562;2023-01-24T10:59:52;5.55;;;3.92;;
12425;SDS011;6277;49.824;9.562;2023-01-24T11:02:21;5.80;;;4.03;;
12425;SDS011;6277;49.824;9.562;2023-01-24T11:04:52;6.55;;;4.07;;
12425;SDS011;6277;49.824;9.562;2023-01-24T11:07:34;6.43;;;4.20;;
12425;SDS011;6277;49.824;9.562;2023-01-24T11:12:46;6.28;;;4.20;;
12425;SDS011;6277;49.824;9.562;2023-01-24T11:15:24;5.85;;;3.97;;
12425;SDS011;6277;49.824;9.562;2023-01-24T11:17:55;8.10;;;4.30;;
12425;SDS011;6277;49.824;9.562;2023-01-24T11:20:32;5.95;;;3.95;;
12425;SDS011;6277;49.824;9.562;2023-01-24T11:23:04;7.55;;;4.30;;
12425;SDS011;6277;49.824;9.562;2023-01-24T11:25:36;7.07;;;4.40;;
12425;SDS011;6277;49.824;9.562;2023-01-24T11:28:24;6.82;;;4.45;;
12425;SDS011;6277;49.824;9.562;2023-01-24T11:30:51;6.57;;;4.50;;
12425;SDS011;6277;49.824;9.562;2023-01-24T11:36:36;5.97;;;3.78;;
12425;SDS011;6277;49.824;9.562;2023-01-24T11:41:54;4.47;;;3.25;;
12425;SDS011;6277;49.824;9.562;2023-01-24T11:47:14;5.10;;;3.58;;
12425;SDS011;6277;49.824;9.562;2023-01-24T11:58:25;7.40;;;4.65;;
12425;SDS011;6277;49.824;9.562;2023-01-24T12:00:35;6.97;;;4.25;;
12425;SDS011;6277;49.824;9.562;2023-01-24T12:03:27;6.57;;;4.15;;
12425;SDS011;6277;49.824;9.562;2023-01-24T12:11:20;5.93;;;4.15;;
12425;SDS011;6277;49.824;9.562;2023-01-24T12:14:09;8.02;;;4.40;;
12425;SDS011;6277;49.824;9.562;2023-01-24T12:22:22;7.20;;;4.03;;
12425;SDS011;6277;49.824;9.562;2023-01-24T12:25:04;5.35;;;3.90;;
12425;SDS011;6277;49.824;9.562;2023-01-24T12:27:40;6.50;;;4.07;;
12425;SDS011;6277;49.824;9.562;2023-01-24T12:30:15;5.68;;;3.83;;
12425;SDS011;6277;49.824;9.562;2023-01-24T12:32:57;7.15;;;4.78;;
12425;SDS011;6277;49.824;9.562;2023-01-24T12:35:43;6.10;;;4.30;;
12425;SDS011;6277;49.824;9.562;2023-01-24T12:43:17;6.55;;;4.28;;
12425;SDS011;6277;49.824;9.562;2023-01-24T12:45:53;7.00;;;4.72;;
12425;SDS011;6277;49.824;9.562;2023-01-24T12:53:52;7.10;;;4.72;;
12425;SDS011;6277;49.824;9.562;2023-01-24T12:56:28;6.00;;;4.20;;
12425;SDS011;6277;49.824;9.562;2023-01-24T12:59:06;7.18;;;4.70;;
12425;SDS011;6277;49.824;9.562;2023-01-24T13:07:14;6.55;;;4.65;;
12425;SDS011;6277;49.824;9.562;2023-01-24T13:10:03;6.95;;;4.65;;
12425;SDS011;6277;49.824;9.562;2023-01-24T13:13:03;8.48;;;5.40;;
12425;SDS011;6277;49.824;9.562;2023-01-24T13:15:45;7.85;;;5.25;;
12425;SDS011;6277;49.824;9.562;2023-01-24T13:23:53;8.95;;;6.00;;
12425;SDS011;6277;49.824;9.562;2023-01-24T13:26:51;6.95;;;4.97;;
12425;SDS011;6277;49.824;9.562;2023-01-24T13:32:12;7.50;;;5.03;;
12425;SDS011;6277;49.824;9.562;2023-01-24T13:34:41;7.85;;;5.45;;
12425;SDS011;6277;49.824;9.562;2023-01-24T13:37:33;7.47;;;5.22;;
12425;SDS011;6277;49.824;9.562;2023-01-24T13:42:39;8.45;;;5.18;;
12425;SDS011;6277;49.824;9.562;2023-01-24T13:47:50;7.90;;;5.40;;
12425;SDS011;6277;49.824;9.562;2023-01-24T13:50:29;7.72;;;5.25;;
12425;SDS011;6277;49.824;9.562;2023-01-24T13:52:57;7.15;;;4.90;;
12425;SDS011;6277;49.824;9.562;2023-01-24T14:00:31;7.47;;;5.03;;
12425;SDS011;6277;49.824;9.562;2023-01-24T14:05:42;12.48;;;8.57;;
12425;SDS011;6277;49.824;9.562;2023-01-24T14:16:11;10.13;;;6.18;;
12425;SDS011;6277;49.824;9.562;2023-01-24T14:21:50;7.85;;;5.60;;
12425;SDS011;6277;49.824;9.562;2023-01-24T14:24:20;6.68;;;5.20;;
12425;SDS011;6277;49.824;9.562;2023-01-24T14:26:53;7.28;;;5.43;;
12425;SDS011;6277;49.824;9.562;2023-01-24T14:29:20;7.80;;;5.13;;
12425;SDS011;6277;49.824;9.562;2023-01-24T14:31:51;7.82;;;5.50;;
12425;SDS011;6277;49.824;9.562;2023-01-24T14:34:21;7.53;;;4.72;;
12425;SDS011;6277;49.824;9.562;2023-01-24T14:37:21;8.52;;;5.53;;
12425;SDS011;6277;49.824;9.562;2023-01-24T14:39:50;6.60;;;5.13;;
12425;SDS011;6277;49.824;9.562;2023-01-24T14:42:15;8.10;;;5.30;;
12425;SDS011;6277;49.824;9.562;2023-01-24T14:44:55;7.47;;;5.45;;
12425;SDS011;6277;49.824;9.562;2023-01-24T14:47:22;8.07;;;5.05;;
12425;SDS011;6277;49.824;9.562;2023-01-24T14:49:50;8.73;;;5.35;;
12425;SDS011;6277;49.824;9.562;2023-01-24T14:52:22;7.65;;;5.25;;
12425;SDS011;6277;49.824;9.562;2023-01-24T14:54:58;7.82;;;5.90;;
12425;SDS011;6277;49.824;9.562;2023-01-24T15:02:36;7.65;;;5.40;;
12425;SDS011;6277;49.824;9.562;2023-01-24T15:07:56;7.70;;;5.55;;
12425;SDS011;6277;49.824;9.562;2023-01-24T15:10:27;6.88;;;5.10;;
12425;SDS011;6277;49.824;9.562;2023-01-24T15:12:55;7.78;;;5.50;;
12425;SDS011;6277;49.824;9.562;2023-01-24T15:15:23;8.23;;;5.35;;
12425;SDS011;6277;49.824;9.562;2023-01-24T15:17:50;7.45;;;5.03;;
12425;SDS011;6277;49.824;9.562;2023-01-24T15:20:23;6.78;;;5.07;;
12425;SDS011;6277;49.824;9.562;2023-01-24T15:22:54;6.50;;;4.75;;
12425;SDS011;6277;49.824;9.562;2023-01-24T15:25:25;6.57;;;4.88;;
12425;SDS011;6277;49.824;9.562;2023-01-24T15:27:53;5.82;;;4.80;;
12425;SDS011;6277;49.824;9.562;2023-01-24T15:32:50;7.90;;;4.97;;
12425;SDS011;6277;49.824;9.562;2023-01-24T15:46:20;6.97;;;5.13;;
12425;SDS011;6277;49.824;9.562;2023-01-24T15:49:15;6.15;;;4.38;;
12425;SDS011;6277;49.824;9.562;2023-01-24T15:51:44;6.28;;;4.47;;
12425;SDS011;6277;49.824;9.562;2023-01-24T15:56:54;7.10;;;4.60;;
12425;SDS011;6277;49.824;9.562;2023-01-24T15:59:22;5.45;;;4.00;;
12425;SDS011;6277;49.824;9.562;2023-01-24T16:01:48;6.38;;;4.07;;
12425;SDS011;6277;49.824;9.562;2023-01-24T16:04:18;5.00;;;4.07;;
12425;SDS011;6277;49.824;9.562;2023-01-24T16:06:44;6.20;;;4.20;;
12425;SDS011;6277;49.824;9.562;2023-01-24T16:09:11;5.43;;;3.92;;
12425;SDS011;6277;49.824;9.562;2023-01-24T16:11:37;5.50;;;3.95;;
12425;SDS011;6277;49.824;9.562;2023-01-24T16:14:05;4.47;;;3.58;;
12425;SDS011;6277;49.824;9.562;2023-01-24T16:16:35;5.10;;;4.15;;
12425;SDS011;6277;49.824;9.562;2023-01-24T16:19:01;5.88;;;3.97;;
12425;SDS011;6277;49.824;9.562;2023-01-24T16:21:26;5.50;;;3.88;;
12425;SDS011;6277;49.824;9.562;2023-01-24T16:23:52;5.50;;;3.75;;
12425;SDS011;6277;49.824;9.562;2023-01-24T16:26:22;6.28;;;4.40;;
12425;SDS011;6277;49.824;9.562;2023-01-24T16:28:49;5.45;;;4.07;;
12425;SDS011;6277;49.824;9.562;2023-01-24T16:31:14;5.63;;;4.07;;
12425;SDS011;6277;49.824;9.562;2023-01-24T16:33:40;5.43;;;4.25;;
12425;SDS011;6277;49.824;9.562;2023-01-24T16:36:06;5.80;;;4.25;;
12425;SDS011;6277;49.824;9.562;2023-01-24T16:38:33;6.53;;;4.70;;
12425;SDS011;6277;49.824;9.562;2023-01-24T16:41:01;6.25;;;4.25;;
12425;SDS011;6277;49.824;9.562;2023-01-24T16:43:28;5.32;;;4.15;;
12425;SDS011;6277;49.824;9.562;2023-01-24T16:45:53;6.35;;;4.28;;
12425;SDS011;6277;49.824;9.562;2023-01-24T16:48:19;6.63;;;4.45;;
12425;SDS011;6277;49.824;9.562;2023-01-24T16:50:44;8.07;;;5.72;;
12425;SDS011;6277;49.824;9.562;2023-01-24T16:53:10;8.02;;;5.13;;
12425;SDS011;6277;49.824;9.562;2023-01-24T16:55:37;5.50;;;4.63;;
12425;SDS011;6277;49.824;9.562;2023-01-24T16:58:04;5.80;;;4.40;;
12425;SDS011;6277;49.824;9.562;2023-01-24T17:00:31;5.85;;;4.45;;
12425;SDS011;6277;49.824;9.562;2023-01-24T17:02:58;5.90;;;4.60;;
12425;SDS011;6277;49.824;9.562;2023-01-24T17:05:24;5.88;;;4.38;;
12425;SDS011;6277;49.824;9.562;2023-01-24T17:07:50;5.88;;;4.72;;
12425;SDS011;6277;49.824;9.562;2023-01-24T17:10:16;7.25;;;4.80;;
12425;SDS011;6277;49.824;9.562;2023-01-24T17:12:43;6.78;;;4.95;;
12425;SDS011;6277;49.824;9.562;2023-01-24T17:15:08;9.18;;;5.40;;
12425;SDS011;6277;49.824;9.562;2023-01-24T17:17:34;9.63;;;5.90;;
12425;SDS011;6277;49.824;9.562;2023-01-24T17:20:00;10.20;;;6.07;;
12425;SDS011;6277;49.824;9.562;2023-01-24T17:22:26;8.23;;;5.70;;
12425;SDS011;6277;49.824;9.562;2023-01-24T17:24:52;7.07;;;5.18;;
12425;SDS011;6277;49.824;9.562;2023-01-24T17:27:18;5.95;;;4.65;;
12425;SDS011;6277;49.824;9.562;2023-01-24T17:29:44;6.60;;;4.78;;
12425;SDS011;6277;49.824;9.562;2023-01-24T17:32:10;6.15;;;4.47;;
12425;SDS011;6277;49.824;9.562;2023-01-24T17:34:35;6.68;;;5.15;;